createdAt,value
2022-09-23T00:00:07.069Z,88.14
2022-09-23T00:05:14.748Z,88.53
2022-09-23T00:10:22.667Z,88.22001
2022-09-23T00:15:28.951Z,87.83
2022-09-23T00:20:36.105Z,88.12
2022-09-23T00:25:45.117Z,87.98
2022-09-23T00:30:52.607Z,88.72001
2022-09-23T00:36:00.002Z,88.8
2022-09-23T00:41:07.751Z,88.87
2022-09-23T00:46:15.284Z,88.49
2022-09-23T00:51:21.868Z,88.19
2022-09-23T00:56:29.620Z,87.83999
2022-09-23T01:01:37.820Z,88.0
2022-09-23T01:06:44.734Z,88.24
2022-09-23T01:11:53.565Z,88.22001
2022-09-23T01:17:01.670Z,88.48001
2022-09-23T01:22:08.660Z,88.48001
2022-09-23T01:27:15.508Z,88.36
2022-09-23T01:32:23.334Z,88.38
2022-09-23T01:37:40.330Z,88.5
2022-09-23T01:42:47.774Z,88.56
2022-09-23T01:47:56.268Z,88.6
2022-09-23T01:53:04.784Z,88.62
2022-09-23T01:58:12.123Z,88.78
2022-09-23T02:03:20.093Z,88.74
2022-09-23T02:08:28.471Z,88.76
2022-09-23T02:13:35.671Z,88.8
2022-09-23T02:18:44.044Z,88.81
2022-09-23T02:23:51.324Z,88.84
2022-09-23T02:28:59.075Z,88.94
2022-09-23T02:34:08.054Z,89.00001
2022-09-23T02:39:17.018Z,88.99
2022-09-23T02:44:24.749Z,88.84
2022-09-23T02:49:40.745Z,88.97
2022-09-23T02:54:47.943Z,89.03
2022-09-23T02:59:55.768Z,89.00001
2022-09-23T03:05:03.669Z,89.04
2022-09-23T03:10:11.452Z,89.00001
2022-09-23T03:15:19.290Z,89.04
2022-09-23T03:20:27.447Z,89.06
2022-09-23T03:25:37.364Z,89.12001
2022-09-23T03:30:45.327Z,89.16
2022-09-23T03:35:52.163Z,89.2
2022-09-23T03:41:00.408Z,89.2
2022-09-23T03:46:09.152Z,89.24
2022-09-23T03:51:17.369Z,89.24
2022-09-23T03:56:24.590Z,89.34
2022-09-23T04:01:32.540Z,89.23
2022-09-23T04:06:39.674Z,89.24
2022-09-23T04:11:46.869Z,89.26001
2022-09-23T04:17:03.336Z,89.24
2022-09-23T04:22:10.811Z,89.22
2022-09-23T04:27:18.263Z,89.31
2022-09-23T04:32:25.217Z,89.36
2022-09-23T04:37:33.014Z,89.28
2022-09-23T04:42:41.468Z,89.38
2022-09-23T04:47:48.912Z,89.44
2022-09-23T04:52:56.578Z,89.51
2022-09-23T04:58:03.130Z,89.48001
2022-09-23T05:03:11.363Z,89.57
2022-09-23T05:08:20.070Z,89.68
2022-09-23T05:13:28.460Z,89.52
2022-09-23T05:18:35.819Z,89.53
2022-09-23T05:23:44.195Z,89.68
2022-09-23T05:28:52.601Z,89.81
2022-09-23T05:34:00.574Z,89.78
2022-09-23T05:39:08.361Z,89.79
2022-09-23T05:44:15.792Z,89.84
2022-09-23T05:49:25.051Z,89.98
2022-09-23T05:54:33.374Z,90.06
2022-09-23T05:59:40.767Z,90.33999
2022-09-23T06:04:48.372Z,90.92
2022-09-23T06:09:57.778Z,91.47
2022-09-23T06:15:06.362Z,91.72
2022-09-23T06:20:14.336Z,91.90001
2022-09-23T06:25:22.539Z,92.21
2022-09-23T06:30:32.261Z,92.46
2022-09-23T06:35:39.194Z,92.38
2022-09-23T06:40:47.026Z,81.63
2022-09-23T06:45:54.819Z,77.41001
2022-09-23T06:51:02.864Z,73.61
2022-09-23T06:56:11.884Z,69.86
2022-09-23T07:01:18.992Z,65.97
2022-09-23T07:06:26.338Z,64.23
2022-09-23T07:11:34.244Z,60.5
2022-09-23T07:16:41.218Z,58.02
2022-09-23T07:21:48.943Z,57.42
2022-09-23T07:26:56.871Z,54.3
2022-09-23T07:32:04.309Z,54.32
2022-09-23T07:37:11.966Z,53.38
2022-09-23T07:42:19.770Z,51.16
2022-09-23T07:47:26.316Z,50.72
2022-09-23T07:52:34.245Z,50.72
2022-09-23T07:57:42.511Z,50.04
2022-09-23T08:02:50.639Z,47.64
2022-09-23T08:07:57.975Z,46.38
2022-09-23T08:13:06.069Z,45.09
2022-09-23T08:18:14.427Z,44.57
2022-09-23T08:23:22.377Z,42.66
2022-09-23T08:28:30.587Z,41.32
2022-09-23T08:33:38.829Z,39.89
2022-09-23T08:38:46.670Z,40.38
2022-09-23T08:43:54.341Z,39.44
2022-09-23T08:49:01.753Z,39.39
2022-09-23T08:54:09.405Z,37.88
2022-09-23T08:59:16.786Z,36.57
2022-09-23T09:04:24.067Z,35.96
2022-09-23T09:09:31.242Z,36.28
2022-09-23T09:14:38.978Z,36.21
2022-09-23T09:19:46.828Z,35.7
2022-09-23T09:24:56.334Z,36.51
2022-09-23T09:30:04.182Z,36.79
2022-09-23T09:35:12.190Z,34.8
2022-09-23T09:40:19.531Z,35.96
2022-09-23T09:45:27.659Z,34.76
2022-09-23T09:50:36.050Z,34.94
2022-09-23T09:55:43.673Z,34.39
2022-09-23T10:00:52.343Z,33.24
2022-09-23T10:06:00.129Z,34.73
2022-09-23T10:11:07.836Z,33.64
2022-09-23T10:16:16.123Z,33.26
2022-09-23T10:21:25.019Z,34.32
2022-09-23T10:26:32.537Z,32.99
2022-09-23T10:31:40.083Z,33.85
2022-09-23T10:36:48.107Z,33.32
2022-09-23T10:41:54.757Z,33.06
2022-09-23T10:47:01.324Z,33.03
2022-09-23T10:52:09.280Z,34.05
2022-09-23T10:57:16.481Z,32.42
2022-09-23T11:02:25.236Z,32.35
2022-09-23T11:07:33.332Z,32.74
2022-09-23T11:12:39.903Z,31.88
2022-09-23T11:17:47.739Z,32.22
2022-09-23T11:22:55.515Z,31.71
2022-09-23T11:28:03.372Z,30.97
2022-09-23T11:33:11.260Z,31.28
2022-09-23T11:38:19.714Z,32.47
2022-09-23T11:43:27.768Z,31.18
2022-09-23T11:48:34.837Z,31.95
2022-09-23T11:53:42.834Z,32.06
2022-09-23T11:58:50.473Z,32.04
2022-09-23T12:03:59.706Z,33.38
2022-09-23T12:09:07.489Z,32.95
2022-09-23T12:14:13.997Z,32.97
2022-09-23T12:19:22.528Z,33.77
2022-09-23T12:24:31.543Z,35.77
2022-09-23T12:29:42.274Z,36.84
2022-09-23T12:34:49.878Z,37.28
2022-09-23T12:39:56.385Z,36.08
2022-09-23T12:45:05.183Z,36.72
2022-09-23T12:50:12.724Z,35.48
2022-09-23T12:55:21.703Z,34.93
2022-09-23T13:00:29.399Z,36.14
2022-09-23T13:05:37.561Z,35.59
2022-09-23T13:10:44.765Z,35.96
2022-09-23T13:15:52.244Z,36.45
2022-09-23T13:20:59.174Z,37.78
2022-09-23T13:26:07.171Z,38.67
2022-09-23T13:31:15.438Z,39.97
2022-09-23T13:36:23.781Z,41.32
2022-09-23T13:41:31.632Z,42.58
2022-09-23T13:46:39.027Z,43.31
2022-09-23T13:51:47.185Z,44.86
2022-09-23T13:56:54.685Z,45.26
2022-09-23T14:02:02.618Z,44.63
2022-09-23T14:07:09.742Z,45.61
2022-09-23T14:12:18.028Z,46.8
2022-09-23T14:17:25.977Z,47.74
2022-09-23T14:22:32.523Z,48.54
2022-09-23T14:27:40.900Z,49.4
2022-09-23T14:32:47.899Z,49.34
2022-09-23T14:37:56.206Z,50.17
2022-09-23T14:43:04.607Z,50.24
2022-09-23T14:48:12.143Z,51.24
2022-09-23T14:53:19.022Z,51.52
2022-09-23T14:58:26.648Z,51.16
2022-09-23T15:03:33.416Z,52.04
2022-09-23T15:08:41.837Z,52.55
2022-09-23T15:13:50.726Z,53.4
2022-09-23T15:18:59.585Z,54.08
2022-09-23T15:24:06.656Z,53.86
2022-09-23T15:29:13.857Z,54.32
2022-09-23T15:34:21.050Z,54.91
2022-09-23T15:39:28.481Z,56.23
2022-09-23T15:44:36.780Z,57.12
2022-09-23T15:49:44.936Z,58.55
2022-09-23T15:54:52.830Z,59.0
2022-09-23T15:59:59.615Z,60.48
2022-09-23T16:05:07.069Z,61.12
2022-09-23T16:10:14.599Z,62.18
2022-09-23T16:15:21.678Z,63.36
2022-09-23T16:20:27.810Z,64.86
2022-09-23T16:25:35.623Z,65.54
2022-09-23T16:30:43.097Z,66.08
2022-09-23T16:35:50.659Z,67.68
2022-09-23T16:40:58.500Z,68.26
2022-09-23T16:46:06.342Z,68.83
2022-09-23T16:51:14.556Z,69.27
2022-09-23T16:56:22.078Z,69.72
2022-09-23T17:01:30.583Z,71.0
2022-09-23T17:06:37.704Z,71.06
2022-09-23T17:11:50.030Z,71.43
2022-09-23T17:16:57.220Z,72.14
2022-09-23T17:22:05.220Z,72.68
2022-09-23T17:27:12.272Z,72.36
2022-09-23T17:32:19.469Z,72.85
2022-09-23T17:37:27.318Z,73.28
2022-09-23T17:42:35.142Z,74.03
2022-09-23T17:47:42.339Z,74.69
2022-09-23T17:52:49.750Z,75.03
2022-09-23T17:57:56.756Z,75.7
2022-09-23T18:03:04.774Z,76.07
2022-09-23T18:08:12.543Z,76.54
2022-09-23T18:13:19.628Z,76.78
2022-09-23T18:18:28.010Z,77.21
2022-09-23T18:23:35.993Z,77.4
2022-09-23T18:28:44.182Z,77.84
2022-09-23T18:33:50.987Z,78.17
2022-09-23T18:38:58.924Z,78.42
2022-09-23T18:44:06.618Z,78.66001
2022-09-23T18:49:13.945Z,78.84
2022-09-23T18:54:22.888Z,79.52
2022-09-23T18:59:30.196Z,79.55
2022-09-23T19:04:37.433Z,80.04001
2022-09-23T19:09:45.137Z,80.38
2022-09-23T19:14:53.120Z,80.36
2022-09-23T19:20:00.914Z,81.07
2022-09-23T19:25:09.326Z,80.87001
2022-09-23T19:30:17.285Z,81.14
2022-09-23T19:35:25.439Z,81.38
2022-09-23T19:40:39.313Z,81.85
2022-09-23T19:45:48.434Z,82.18
2022-09-23T19:51:17.759Z,82.16001
2022-09-23T19:56:25.921Z,82.25
2022-09-23T20:01:32.482Z,82.3
2022-09-23T20:06:39.682Z,82.56
2022-09-23T20:11:48.398Z,82.73001
2022-09-23T20:16:56.726Z,83.01001
2022-09-23T20:22:04.441Z,83.44001
2022-09-23T20:27:11.638Z,83.18
2022-09-23T20:32:18.909Z,83.48001
2022-09-23T20:37:27.850Z,83.72001
2022-09-23T20:42:36.349Z,83.55
2022-09-23T20:47:43.668Z,83.71
2022-09-23T20:53:06.135Z,83.53
2022-09-23T20:58:13.631Z,83.63
2022-09-23T21:03:20.757Z,84.04
2022-09-23T21:08:29.429Z,84.2
2022-09-23T21:13:36.918Z,83.92
2022-09-23T21:18:45.152Z,84.04
2022-09-23T21:23:52.614Z,83.97
2022-09-23T21:29:00.968Z,84.13
2022-09-23T21:34:09.775Z,84.22
2022-09-23T21:39:17.377Z,84.33001
2022-09-23T21:44:24.595Z,84.54
2022-09-23T21:49:33.088Z,84.59
2022-09-23T21:54:41.439Z,85.13
2022-09-23T21:59:49.071Z,84.84
2022-09-23T22:05:03.371Z,84.7
2022-09-23T22:10:11.398Z,84.91
2022-09-23T22:15:17.383Z,84.71
2022-09-23T22:20:25.699Z,84.81
2022-09-23T22:25:33.679Z,84.94
2022-09-23T22:30:41.951Z,84.97001
2022-09-23T22:35:49.441Z,85.17
2022-09-23T22:40:56.316Z,85.22
2022-09-23T22:46:06.869Z,85.2
2022-09-23T22:51:15.503Z,85.28
2022-09-23T22:56:22.674Z,85.5
2022-09-23T23:01:31.222Z,85.56
2022-09-23T23:06:40.081Z,85.96
2022-09-23T23:11:46.832Z,85.62
2022-09-23T23:16:54.196Z,85.56
2022-09-23T23:22:01.971Z,85.56
2022-09-23T23:27:10.208Z,85.54
2022-09-23T23:32:18.718Z,85.85
2022-09-23T23:37:26.637Z,85.80001
2022-09-23T23:42:34.517Z,85.76
2022-09-23T23:47:42.303Z,86.03
2022-09-23T23:52:50.549Z,85.92
2022-09-23T23:57:57.409Z,86.08001
